1921 NOT_NAMED (1921314N11130)


IBTrACS version v04r00. Visit IBTrACS website for data access.
Please direct all questions to the IBTrACS Q and A forum

Storm track - Intensity - Wind Radii - Intensity Data - Source Data - All data

Summary Information

Storm ID 1921314N11130
Start Nov 9 22Z
Landfall Nov 10 21Z, Nov 11 09Z, Nov 11 21Z, Nov 12 12Z
End Nov 15 22Z
ATCF IDs
Track status Best track data.

Storm track plot

Map of storm track

Intensity plots

No Intensity information for this storm


Radial wind information

No radial wind information for this storm


Position and Intensity Table

BASIN ISO_TIME_________ NATURE LAT LON
degrees north degrees east
WP 1921-11-09 22:00:00 NR 10.80 130.00
WP 1921-11-10 00:00:00 NR 10.67 129.58
WP 03:00:00 NR 10.51 128.95
WP 06:00:00 NR 10.40 128.30
WP 09:00:00 NR 10.38 127.63
WP 10:00:00 NR 10.40 127.40
WP 12:00:00 NR 10.48 126.93
WP 15:00:00 NR 10.70 126.22
WP 18:00:00 NR 10.98 125.57
WP 21:00:00 NR 11.30 125.04
WP 22:00:00 NR 11.40 124.90
WP 1921-11-11 00:00:00 NR 11.57 124.72
WP 03:00:00 NR 11.82 124.57
WP 06:00:00 NR 12.10 124.50
WP 09:00:00 NR 12.39 124.44
WP 10:00:00 NR 12.50 124.40
WP 12:00:00 NR 12.73 124.27
WP 15:00:00 NR 13.10 124.04
WP 18:00:00 NR 13.49 123.75
WP 21:00:00 NR 13.87 123.42
WP 22:00:00 NR 14.00 123.30
WP 1921-11-12 00:00:00 NR 14.24 123.04
WP 03:00:00 NR 14.60 122.61
WP 06:00:00 NR 14.95 122.15
WP 09:00:00 NR 15.29 121.66
WP 10:00:00 NR 15.40 121.50
WP 12:00:00 NR 15.63 121.15
WP 15:00:00 NR 15.98 120.62
WP 18:00:00 NR 16.30 120.13
WP 21:00:00 NR 16.61 119.71
WP 22:00:00 NR 16.70 119.60
WP 1921-11-13 00:00:00 NR 16.87 119.42
WP 03:00:00 NR 17.11 119.23
WP 06:00:00 NR 17.32 119.13
WP 09:00:00 NR 17.53 119.10
WP 10:00:00 NR 17.60 119.10
WP 12:00:00 NR 17.76 119.09
WP 15:00:00 NR 17.99 119.12
WP 18:00:00 NR 18.22 119.19
WP 21:00:00 NR 18.44 119.27
WP 22:00:00 NR 18.50 119.30
WP 1921-11-14 00:00:00 NR 18.62 119.31
WP 03:00:00 NR 18.79 119.34
WP 06:00:00 NR 18.93 119.40
WP 09:00:00 NR 19.06 119.53
WP 10:00:00 NR 19.10 119.60
WP 12:00:00 NR 19.14 119.79
WP 15:00:00 NR 19.18 120.16
WP 18:00:00 NR 19.26 120.57
WP 21:00:00 NR 19.42 120.97
WP 22:00:00 NR 19.50 121.10
WP 1921-11-15 00:00:00 NR 19.73 121.28
WP 03:00:00 NR 20.17 121.51
WP 06:00:00 NR 20.68 121.76
WP 09:00:00 NR 21.22 122.07
WP 10:00:00 NR 21.40 122.20
WP 12:00:00 NR 21.74 122.49
WP 15:00:00 NR 22.23 123.02
WP 18:00:00 NR 22.70 123.63
WP 21:00:00 NR 23.15 124.28
WP 22:00:00 NR 23.30 124.50

Source Information

Agency Information
USA
TOKYO
CMA
HKO
NEWDELHI
REUNION
BOM
NADI
WELLINGTON
DS824
TD9636 cons_worldwide_trop_cyclone_18710101-19891231-003:Line=6522
TD9635
NEUMANN
MLC

All available IBTrACS Data

SEASON BASIN SUBBASIN ISO_TIME_________ NATURE LAT LON DIST2LAND LANDFALL IFLAG USA SSHS TD9636 LAT TD9636 LON TD9636 STAGE STORM SPEED STORM DIR
Year degrees north degrees east km km 1 degrees north degrees east kts degrees
1921 WP MM 1921-11-09 22:00:00 NR 10.80 130.00 453 408 __________O___ -1 10.80 130.00 7 13 253
1921 WP MM 1921-11-10 00:00:00 NR 10.67 129.58 408 339 __________P___ -1 10.67 129.58 7 13 254
1921 WP MM 03:00:00 NR 10.51 128.95 339 266 __________P___ -1 10.51 128.95 7 13 258
1921 WP MM 06:00:00 NR 10.40 128.30 266 202 __________P___ -1 10.40 128.30 7 13 264
1921 WP MM 09:00:00 NR 10.38 127.63 202 183 __________P___ -1 10.38 127.63 7 13 270
1921 WP MM 10:00:00 NR 10.40 127.40 183 132 __________O___ -1 10.40 127.40 7 14 279
1921 WP MM 12:00:00 NR 10.48 126.93 132 55 __________P___ -1 10.48 126.93 7 14 284
1921 WP MM 15:00:00 NR 10.70 126.22 55 11 __________P___ -1 10.70 126.22 7 14 291
1921 WP MM 18:00:00 NR 10.98 125.57 15 0 __________P___ -1 10.98 125.57 7 13 297
1921 WP MM 21:00:00 NR 11.30 125.04 0 0 __________P___ -1 11.30 125.04 7 12 302
1921 WP MM 22:00:00 NR 11.40 124.90 10 0 __________O___ -1 11.40 124.90 4 8 310
1921 WP MM 1921-11-11 00:00:00 NR 11.57 124.72 15 15 __________P___ -1 11.57 124.72 4 6 323
1921 WP MM 03:00:00 NR 11.82 124.57 24 10 __________P___ -1 11.82 124.57 4 6 338
1921 WP MM 06:00:00 NR 12.10 124.50 10 0 __________P___ -1 12.10 124.50 4 6 347
1921 WP MM 09:00:00 NR 12.39 124.44 0 0 __________P___ -1 12.39 124.44 4 6 345
1921 WP MM 10:00:00 NR 12.50 124.40 0 0 __________O___ -1 12.50 124.40 4 8 334
1921 WP MM 12:00:00 NR 12.73 124.27 21 0 __________P___ -1 12.73 124.27 4 8 329
1921 WP MM 15:00:00 NR 13.10 124.04 11 0 __________P___ -1 13.10 124.04 4 9 326
1921 WP MM 18:00:00 NR 13.49 123.75 15 0 __________P___ -1 13.49 123.75 4 10 322
1921 WP MM 21:00:00 NR 13.87 123.42 0 0 __________P___ -1 13.87 123.42 4 10 319
1921 WP MM 22:00:00 NR 14.00 123.30 0 0 __________O___ -1 14.00 123.30 4 10 315
1921 WP MM 1921-11-12 00:00:00 NR 14.24 123.04 10 11 __________P___ -1 14.24 123.04 4 11 312
1921 WP MM 03:00:00 NR 14.60 122.61 44 44 __________P___ -1 14.60 122.61 4 11 309
1921 WP MM 06:00:00 NR 14.95 122.15 48 31 __________P___ -1 14.95 122.15 4 12 307
1921 WP MM 09:00:00 NR 15.29 121.66 31 10 __________P___ -1 15.29 121.66 4 12 306
1921 WP MM 10:00:00 NR 15.40 121.50 10 0 __________O___ -1 15.40 121.50 4 12 305
1921 WP MM 12:00:00 NR 15.63 121.15 0 0 __________P___ -1 15.63 121.15 4 12 304
1921 WP MM 15:00:00 NR 15.98 120.62 0 0 __________P___ -1 15.98 120.62 4 12 304
1921 WP MM 18:00:00 NR 16.30 120.13 21 11 __________P___ -1 16.30 120.13 4 11 306
1921 WP MM 21:00:00 NR 16.61 119.71 35 35 __________P___ -1 16.61 119.71 4 10 308
1921 WP MM 22:00:00 NR 16.70 119.60 49 49 __________O___ -1 16.70 119.60 4 8 313
1921 WP MM 1921-11-13 00:00:00 NR 16.87 119.42 79 79 __________P___ -1 16.87 119.42 4 6 319
1921 WP MM 03:00:00 NR 17.11 119.23 110 110 __________P___ -1 17.11 119.23 4 5 329
1921 WP MM 06:00:00 NR 17.32 119.13 131 127 __________P___ -1 17.32 119.13 4 4 343
1921 WP MM 09:00:00 NR 17.53 119.10 127 127 __________P___ -1 17.53 119.10 4 4 351
1921 WP MM 10:00:00 NR 17.60 119.10 127 127 __________O___ -1 17.60 119.10 4 5 0
1921 WP MM 12:00:00 NR 17.76 119.09 129 129 __________P___ -1 17.76 119.09 4 5 4
1921 WP MM 15:00:00 NR 17.99 119.12 134 129 __________P___ -1 17.99 119.12 4 5 11
1921 WP MM 18:00:00 NR 18.22 119.19 134 131 __________P___ -1 18.22 119.19 4 5 18
1921 WP MM 21:00:00 NR 18.44 119.27 131 131 __________P___ -1 18.44 119.27 4 4 21
1921 WP MM 22:00:00 NR 18.50 119.30 134 134 __________O___ -1 18.50 119.30 4 4 10
1921 WP MM 1921-11-14 00:00:00 NR 18.62 119.31 138 138 __________P___ -1 18.62 119.31 4 3 6
1921 WP MM 03:00:00 NR 18.79 119.34 144 134 __________P___ -1 18.79 119.34 4 3 14
1921 WP MM 06:00:00 NR 18.93 119.40 138 133 __________P___ -1 18.93 119.40 4 3 34
1921 WP MM 09:00:00 NR 19.06 119.53 139 131 __________P___ -1 19.06 119.53 4 4 48
1921 WP MM 10:00:00 NR 19.10 119.60 131 115 __________O___ -1 19.10 119.60 4 5 72
1921 WP MM 12:00:00 NR 19.14 119.79 115 92 __________P___ -1 19.14 119.79 4 6 81
1921 WP MM 15:00:00 NR 19.18 120.16 92 74 __________P___ -1 19.18 120.16 4 7 81
1921 WP MM 18:00:00 NR 19.26 120.57 81 78 __________P___ -1 19.26 120.57 4 8 73
1921 WP MM 21:00:00 NR 19.42 120.97 90 90 __________P___ -1 19.42 120.97 4 8 64
1921 WP MM 22:00:00 NR 19.50 121.10 102 102 __________O___ -1 19.50 121.10 4 8 43
1921 WP MM 1921-11-15 00:00:00 NR 19.73 121.28 130 140 __________P___ -1 19.73 121.28 4 9 30
1921 WP MM 03:00:00 NR 20.17 121.51 189 157 __________P___ -1 20.17 121.51 4 11 26
1921 WP MM 06:00:00 NR 20.68 121.76 163 138 __________P___ -1 20.68 121.76 4 12 27
1921 WP MM 09:00:00 NR 21.22 122.07 146 141 __________P___ -1 21.22 122.07 4 12 30
1921 WP MM 10:00:00 NR 21.40 122.20 145 141 __________O___ -1 21.40 122.20 4 13 37
1921 WP MM 12:00:00 NR 21.74 122.49 166 165 __________P___ -1 21.74 122.49 4 14 42
1921 WP MM 15:00:00 NR 22.23 123.02 192 195 __________P___ -1 22.23 123.02 4 14 48
1921 WP MM 18:00:00 NR 22.70 123.63 229 237 __________P___ -1 22.70 123.63 4 15 52
1921 WP MM 21:00:00 NR 23.15 124.28 283 283 __________P___ -1 23.15 124.28 4 15 53
1921 WP MM 22:00:00 NR 23.30 124.50 296 __________O___ -1 23.30 124.50 4 15 54